createdAt,value
2023-01-25T00:00:19.705Z,1.60
2023-01-25T00:03:21.375Z,1.48
2023-01-25T00:06:23.065Z,1.60
2023-01-25T00:09:27.640Z,1.80
2023-01-25T00:12:29.129Z,1.60
2023-01-25T00:15:30.916Z,1.70
2023-01-25T00:18:32.393Z,1.67
2023-01-25T00:21:34.849Z,1.77
2023-01-25T00:24:36.383Z,1.60
2023-01-25T00:27:38.023Z,1.73
2023-01-25T00:30:39.537Z,1.60
2023-01-25T00:33:50.826Z,1.70
2023-01-25T00:37:02.351Z,1.50
2023-01-25T00:40:05.129Z,1.55
2023-01-25T00:43:06.628Z,1.60
2023-01-25T00:46:09.294Z,1.50
2023-01-25T00:49:26.577Z,1.60
2023-01-25T00:52:28.635Z,1.70
2023-01-25T00:55:30.123Z,1.80
2023-01-25T00:58:31.729Z,1.60
2023-01-25T01:01:34.825Z,1.80
2023-01-25T01:04:36.440Z,1.70
2023-01-25T01:07:38.481Z,1.50
2023-01-25T01:10:40.393Z,1.60
2023-01-25T01:13:41.971Z,1.65
2023-01-25T01:16:43.551Z,1.65
2023-01-25T01:19:45.082Z,1.70
2023-01-25T01:22:46.557Z,1.70
2023-01-25T01:25:48.096Z,1.40
2023-01-25T01:28:49.687Z,1.42
2023-01-25T01:31:53.557Z,1.70
2023-01-25T01:34:58.621Z,1.70
2023-01-25T01:38:00.150Z,1.80
2023-01-25T01:41:01.843Z,1.45
2023-01-25T01:44:04.635Z,1.73
2023-01-25T01:47:15.149Z,1.75
2023-01-25T01:50:21.048Z,1.70
2023-01-25T01:53:25.032Z,1.70
2023-01-25T01:56:32.644Z,1.50
2023-01-25T01:59:50.998Z,1.50
2023-01-25T02:02:54.358Z,1.60
2023-01-25T02:06:47.032Z,1.70
2023-01-25T02:09:51.319Z,1.55
2023-01-25T02:12:55.521Z,1.50
2023-01-25T02:15:58.587Z,1.60
2023-01-25T02:19:02.365Z,1.60
2023-01-25T02:22:10.117Z,1.77
2023-01-25T02:25:14.757Z,1.67
2023-01-25T02:28:43.699Z,1.80
2023-01-25T02:31:47.468Z,1.60
2023-01-25T02:34:49.080Z,1.70
2023-01-25T02:37:51.827Z,1.60
2023-01-25T02:41:06.919Z,1.70
2023-01-25T02:44:12.701Z,1.65
2023-01-25T02:47:15.918Z,1.77
2023-01-25T02:50:17.681Z,1.67
2023-01-25T02:53:19.251Z,2.10
2023-01-25T02:56:21.610Z,1.70
2023-01-25T02:59:23.688Z,1.58
2023-01-25T03:02:28.782Z,1.40
2023-01-25T03:05:30.284Z,1.80
2023-01-25T03:08:33.909Z,1.63
2023-01-25T03:11:36.122Z,1.70
2023-01-25T03:14:37.864Z,1.70
2023-01-25T03:17:39.463Z,1.90
2023-01-25T03:20:41.197Z,1.50
2023-01-25T03:23:43.927Z,1.60
2023-01-25T03:27:06.562Z,1.65
2023-01-25T03:30:13.712Z,1.50
2023-01-25T03:33:15.224Z,1.70
2023-01-25T03:36:16.860Z,1.80
2023-01-25T03:39:18.431Z,1.60
2023-01-25T03:42:21.365Z,1.58
2023-01-25T03:45:26.985Z,1.60
2023-01-25T03:48:29.661Z,1.60
2023-01-25T03:51:31.362Z,1.50
2023-01-25T03:54:33.139Z,1.70
2023-01-25T03:57:34.838Z,1.65
2023-01-25T04:00:39.427Z,1.52
2023-01-25T04:03:41.058Z,1.63
2023-01-25T04:06:43.703Z,1.77
2023-01-25T04:09:45.280Z,1.70
2023-01-25T04:12:47.550Z,1.50
2023-01-25T04:15:49.899Z,1.55
2023-01-25T04:19:04.482Z,1.83
2023-01-25T04:22:08.879Z,1.60
2023-01-25T04:25:12.575Z,1.58
2023-01-25T04:28:22.067Z,1.70
2023-01-25T04:31:23.803Z,1.70
2023-01-25T04:34:25.591Z,1.60
2023-01-25T04:37:27.178Z,1.70
2023-01-25T04:40:32.548Z,1.80
2023-01-25T04:43:34.175Z,1.65
2023-01-25T04:46:40.785Z,1.67
2023-01-25T04:49:42.292Z,2.03
2023-01-25T04:52:44.727Z,1.73
2023-01-25T04:55:47.852Z,1.65
2023-01-25T04:58:50.197Z,1.98
2023-01-25T05:01:51.736Z,1.80
2023-01-25T05:04:53.262Z,2.00
2023-01-25T05:07:56.031Z,2.00
2023-01-25T05:10:57.697Z,1.85
2023-01-25T05:14:17.624Z,1.90
2023-01-25T05:17:20.786Z,1.80
2023-01-25T05:20:22.555Z,1.92
2023-01-25T05:23:24.275Z,2.00
2023-01-25T05:26:46.255Z,1.73
2023-01-25T05:29:48.115Z,1.90
2023-01-25T05:32:50.533Z,1.75
2023-01-25T05:35:53.695Z,1.67
2023-01-25T05:38:56.053Z,1.80
2023-01-25T05:41:57.726Z,1.90
2023-01-25T05:44:59.243Z,1.83
2023-01-25T05:48:00.917Z,1.75
2023-01-25T05:51:02.417Z,2.15
2023-01-25T05:54:06.979Z,1.90
2023-01-25T05:57:09.108Z,1.60
2023-01-25T06:00:11.509Z,1.70
2023-01-25T06:03:16.092Z,2.00
2023-01-25T06:06:18.731Z,1.80
2023-01-25T06:09:20.888Z,1.73
2023-01-25T06:12:22.512Z,1.70
2023-01-25T06:15:25.177Z,1.80
2023-01-25T06:18:31.520Z,1.80
2023-01-25T06:21:53.424Z,1.85
2023-01-25T06:24:54.919Z,1.67
2023-01-25T06:27:56.427Z,1.90
2023-01-25T06:31:04.185Z,1.90
2023-01-25T06:34:06.367Z,1.77
2023-01-25T06:37:08.112Z,1.80
2023-01-25T06:40:10.279Z,1.95
2023-01-25T06:43:12.020Z,1.92
2023-01-25T06:46:13.879Z,1.80
2023-01-25T06:49:15.406Z,1.98
2023-01-25T06:52:16.940Z,1.67
2023-01-25T06:55:18.453Z,2.20
2023-01-25T06:58:19.993Z,1.90
2023-01-25T07:01:26.905Z,1.52
2023-01-25T07:04:28.727Z,1.70
2023-01-25T07:07:30.570Z,1.80
2023-01-25T07:10:33.864Z,1.90
2023-01-25T07:13:35.830Z,1.90
2023-01-25T07:16:38.404Z,1.77
2023-01-25T07:19:39.865Z,2.05
2023-01-25T07:22:41.314Z,1.90
2023-01-25T07:25:50.508Z,1.85
2023-01-25T07:28:52.732Z,1.80
2023-01-25T07:31:54.240Z,2.05
2023-01-25T07:34:55.744Z,2.05
2023-01-25T07:37:57.267Z,1.92
2023-01-25T07:40:58.857Z,1.80
2023-01-25T07:44:00.643Z,2.20
2023-01-25T07:47:08.619Z,2.10
2023-01-25T07:50:10.887Z,2.15
2023-01-25T07:53:16.810Z,1.80
2023-01-25T07:56:19.399Z,1.88
2023-01-25T07:59:20.882Z,1.80
2023-01-25T08:02:22.443Z,2.40
2023-01-25T08:05:25.339Z,1.83
2023-01-25T08:08:27.025Z,2.00
2023-01-25T08:11:30.784Z,1.90
2023-01-25T08:14:32.902Z,2.00
2023-01-25T08:17:34.450Z,2.20
2023-01-25T08:20:37.617Z,2.00
2023-01-25T08:23:39.135Z,2.03
2023-01-25T08:26:40.659Z,1.80
2023-01-25T08:29:42.177Z,2.00
2023-01-25T08:32:43.673Z,1.83
2023-01-25T08:35:55.723Z,2.20
2023-01-25T08:38:59.950Z,2.20
2023-01-25T08:42:01.465Z,2.08
2023-01-25T08:45:03.093Z,2.20
2023-01-25T08:48:04.981Z,1.83
2023-01-25T08:51:12.856Z,2.20
2023-01-25T08:54:14.380Z,1.90
2023-01-25T08:57:15.962Z,1.90
2023-01-25T09:00:18.077Z,2.15
2023-01-25T09:03:19.548Z,2.20
2023-01-25T09:06:21.555Z,2.17
2023-01-25T09:09:24.869Z,2.10
2023-01-25T09:12:26.462Z,2.22
2023-01-25T09:15:28.351Z,2.20
2023-01-25T09:18:31.272Z,2.20
2023-01-25T09:21:33.534Z,2.08
2023-01-25T09:24:37.277Z,2.00
2023-01-25T09:27:38.975Z,2.15
2023-01-25T09:30:48.527Z,2.10
2023-01-25T09:34:01.039Z,2.13
2023-01-25T09:37:02.516Z,2.15
2023-01-25T09:40:04.904Z,1.98
2023-01-25T09:43:20.102Z,2.10
2023-01-25T09:46:36.969Z,2.30
2023-01-25T09:50:13.180Z,2.00
2023-01-25T09:53:39.255Z,2.33
2023-01-25T09:56:40.934Z,2.40
2023-01-25T09:59:45.322Z,1.98
2023-01-25T10:02:57.792Z,2.10
2023-01-25T10:06:02.047Z,2.00
2023-01-25T10:09:21.797Z,2.17
2023-01-25T10:12:25.677Z,2.10
2023-01-25T10:15:38.363Z,2.03
2023-01-25T10:19:07.502Z,1.80
2023-01-25T10:22:23.511Z,2.10
2023-01-25T10:25:34.919Z,2.40
2023-01-25T10:28:44.036Z,2.08
2023-01-25T10:31:50.444Z,2.03
2023-01-25T10:41:40.692Z,2.08
2023-01-25T10:44:42.327Z,2.20
2023-01-25T10:47:48.306Z,2.00
2023-01-25T10:50:52.556Z,2.20
2023-01-25T10:53:59.828Z,2.00
2023-01-25T10:57:01.767Z,1.90
2023-01-25T11:00:10.529Z,2.00
2023-01-25T11:03:22.063Z,2.20
2023-01-25T11:06:38.775Z,2.10
2023-01-25T11:09:40.306Z,2.10
2023-01-25T11:12:41.830Z,2.00
2023-01-25T11:15:46.237Z,2.22
2023-01-25T11:18:54.262Z,1.80
2023-01-25T11:21:58.506Z,1.90
2023-01-25T11:25:28.648Z,2.13
2023-01-25T11:28:30.272Z,1.60
2023-01-25T11:31:31.852Z,2.00
2023-01-25T11:34:33.381Z,2.08
2023-01-25T11:38:02.826Z,2.00
2023-01-25T11:41:21.821Z,1.85
2023-01-25T11:44:42.271Z,2.05
2023-01-25T11:48:25.283Z,3.10
2023-01-25T11:52:03.651Z,3.70
2023-01-25T11:55:14.286Z,3.95
2023-01-25T11:58:34.518Z,3.65
2023-01-25T12:01:49.777Z,3.50
2023-01-25T12:05:21.160Z,3.70
2023-01-25T12:08:49.177Z,3.55
2023-01-25T12:12:18.529Z,3.90
2023-01-25T12:15:42.398Z,3.38
2023-01-25T12:19:05.081Z,2.72
2023-01-25T12:22:28.369Z,2.70
2023-01-25T12:25:49.043Z,2.67
2023-01-25T12:28:53.528Z,2.30
2023-01-25T12:32:12.704Z,2.38
2023-01-25T12:35:28.117Z,2.42
2023-01-25T12:38:38.564Z,2.40
2023-01-25T12:41:57.144Z,2.40
2023-01-25T12:45:15.649Z,2.33
2023-01-25T12:48:22.862Z,2.10
2023-01-25T12:51:28.809Z,2.20
2023-01-25T12:54:36.159Z,2.08
2023-01-25T12:57:59.027Z,2.30
2023-01-25T13:01:19.432Z,1.95
2023-01-25T13:05:02.719Z,2.13
2023-01-25T13:08:31.082Z,2.10
2023-01-25T13:11:40.827Z,2.13
2023-01-25T13:14:42.434Z,2.13
2023-01-25T13:17:44.012Z,2.10
2023-01-25T13:20:49.243Z,2.40
2023-01-25T13:24:11.137Z,2.08
2023-01-25T13:27:27.724Z,2.00
2023-01-25T13:30:34.537Z,2.20
2023-01-25T13:33:37.019Z,2.10
2023-01-25T13:36:41.555Z,2.33
2023-01-25T13:39:45.832Z,2.00
2023-01-25T13:43:00.290Z,2.13
2023-01-25T13:46:05.899Z,2.10
2023-01-25T13:49:21.202Z,1.90
2023-01-25T13:52:25.206Z,2.28
2023-01-25T13:55:27.880Z,1.80
2023-01-25T13:58:36.313Z,2.10
2023-01-25T14:01:37.930Z,2.10
2023-01-25T14:04:39.569Z,2.05
2023-01-25T14:07:45.382Z,2.17
2023-01-25T14:10:47.468Z,2.10
2023-01-25T14:14:18.120Z,2.15
2023-01-25T14:17:23.142Z,1.98
2023-01-25T14:20:24.909Z,2.10
2023-01-25T14:23:29.043Z,1.90
2023-01-25T14:26:32.081Z,2.00
2023-01-25T14:29:40.311Z,1.90
2023-01-25T14:32:41.978Z,1.70
2023-01-25T14:36:11.580Z,2.22
2023-01-25T14:39:21.377Z,1.60
2023-01-25T14:42:22.948Z,1.97
2023-01-25T14:45:26.857Z,1.70
2023-01-25T14:48:35.206Z,1.80
2023-01-25T14:51:43.399Z,2.58
2023-01-25T14:54:50.286Z,2.00
2023-01-25T14:57:52.046Z,2.08
2023-01-25T15:01:00.557Z,1.70
2023-01-25T15:04:02.696Z,1.90
2023-01-25T15:07:16.815Z,2.17
2023-01-25T15:10:29.663Z,1.90
2023-01-25T15:13:31.180Z,1.80
2023-01-25T15:16:34.278Z,1.90
2023-01-25T15:19:35.921Z,1.90
2023-01-25T15:22:37.448Z,1.67
2023-01-25T15:25:52.521Z,1.85
2023-01-25T15:28:56.902Z,3.58
2023-01-25T15:31:58.538Z,3.33
2023-01-25T15:35:00.045Z,3.90
2023-01-25T15:38:01.580Z,4.00
2023-01-25T15:41:03.114Z,3.08
2023-01-25T15:44:04.718Z,3.08
2023-01-25T15:47:06.235Z,3.10
2023-01-25T15:50:17.625Z,2.40
2023-01-25T15:53:19.072Z,2.60
2023-01-25T15:56:24.660Z,2.30
2023-01-25T15:59:27.083Z,2.20
2023-01-25T16:02:28.780Z,2.42
2023-01-25T16:05:30.330Z,2.60
2023-01-25T16:08:31.944Z,2.30
2023-01-25T16:11:33.424Z,2.30
2023-01-25T16:14:34.920Z,2.17
2023-01-25T16:17:36.457Z,2.28
2023-01-25T16:20:37.957Z,2.25
2023-01-25T16:23:40.311Z,2.15
2023-01-25T16:26:48.129Z,2.08
2023-01-25T16:29:49.779Z,1.90
2023-01-25T16:32:52.760Z,1.80
2023-01-25T16:36:13.915Z,2.20
2023-01-25T16:39:19.987Z,1.90
2023-01-25T16:42:22.761Z,2.05
2023-01-25T16:45:25.387Z,2.03
2023-01-25T16:48:26.916Z,1.90
2023-01-25T16:51:28.865Z,1.75
2023-01-25T16:54:30.371Z,1.80
2023-01-25T16:57:31.857Z,1.90
2023-01-25T17:00:33.595Z,1.73
2023-01-25T17:03:35.037Z,1.70
2023-01-25T17:06:43.412Z,1.75
2023-01-25T17:09:44.971Z,1.80
2023-01-25T17:12:46.524Z,1.60
2023-01-25T17:15:48.201Z,2.00
2023-01-25T17:18:55.480Z,1.80
2023-01-25T17:21:59.028Z,1.95
2023-01-25T17:25:00.531Z,1.80
2023-01-25T17:28:02.032Z,1.88
2023-01-25T17:31:03.818Z,2.00
2023-01-25T17:34:07.956Z,1.95
2023-01-25T17:37:09.551Z,1.70
2023-01-25T17:40:12.025Z,2.17
2023-01-25T17:43:14.173Z,1.70
2023-01-25T17:46:22.480Z,1.80
2023-01-25T17:49:26.081Z,1.80
2023-01-25T17:52:27.560Z,1.55
2023-01-25T17:55:29.547Z,1.60
2023-01-25T17:58:34.154Z,1.60
2023-01-25T18:01:36.247Z,1.83
2023-01-25T18:04:37.843Z,1.70
2023-01-25T18:07:39.477Z,1.55
2023-01-25T18:10:41.246Z,1.83
2023-01-25T18:13:48.040Z,1.63
2023-01-25T18:16:50.411Z,1.60
2023-01-25T18:19:52.063Z,1.50
2023-01-25T18:22:54.023Z,1.88
2023-01-25T18:25:55.518Z,1.52
2023-01-25T18:29:34.422Z,1.58
2023-01-25T18:32:36.004Z,1.70
2023-01-25T18:35:37.487Z,1.60
2023-01-25T18:38:38.961Z,1.70
2023-01-25T18:41:40.411Z,1.60
2023-01-25T18:44:43.387Z,1.88
2023-01-25T18:47:44.960Z,1.52
2023-01-25T18:50:46.535Z,1.48
2023-01-25T18:53:48.042Z,1.45
2023-01-25T18:56:49.519Z,1.65
2023-01-25T18:59:51.964Z,1.50
2023-01-25T19:02:53.491Z,1.58
2023-01-25T19:05:55.022Z,1.40
2023-01-25T19:08:57.106Z,1.60
2023-01-25T19:11:58.874Z,1.40
2023-01-25T19:15:00.337Z,1.70
2023-01-25T19:18:01.817Z,1.50
2023-01-25T19:21:08.608Z,1.60
2023-01-25T19:24:15.553Z,1.80
2023-01-25T19:27:17.742Z,1.42
2023-01-25T19:30:19.288Z,1.30
2023-01-25T19:33:20.785Z,1.60
2023-01-25T19:36:22.849Z,1.60
2023-01-25T19:39:24.391Z,1.58
2023-01-25T19:42:25.852Z,1.38
2023-01-25T19:45:27.324Z,1.50
2023-01-25T19:48:32.204Z,1.73
2023-01-25T19:51:39.670Z,1.70
2023-01-25T19:54:41.166Z,1.52
2023-01-25T19:57:42.639Z,1.52
2023-01-25T20:00:44.141Z,1.83
2023-01-25T20:03:46.520Z,1.73
2023-01-25T20:06:50.067Z,1.30
2023-01-25T20:09:52.073Z,1.73
2023-01-25T20:12:53.538Z,1.60
2023-01-25T20:15:55.485Z,1.50
2023-01-25T20:18:57.151Z,1.35
2023-01-25T20:22:00.408Z,1.38
2023-01-25T20:25:02.033Z,1.40
2023-01-25T20:28:03.591Z,1.50
2023-01-25T20:31:05.421Z,1.45
2023-01-25T20:34:15.420Z,1.63
2023-01-25T20:37:17.010Z,1.40
2023-01-25T20:40:18.755Z,1.42
2023-01-25T20:43:22.390Z,1.50
2023-01-25T20:46:24.585Z,1.65
2023-01-25T20:49:26.074Z,1.50
2023-01-25T20:52:27.616Z,1.40
2023-01-25T20:55:29.086Z,1.40
2023-01-25T20:58:30.881Z,1.42
2023-01-25T21:01:38.941Z,1.60
2023-01-25T21:04:40.490Z,1.33
2023-01-25T21:07:42.122Z,1.50
2023-01-25T21:10:53.859Z,1.70
2023-01-25T21:13:55.529Z,1.40
2023-01-25T21:16:57.046Z,1.48
2023-01-25T21:19:58.634Z,1.40
2023-01-25T21:23:00.115Z,1.52
2023-01-25T21:26:02.900Z,1.35
2023-01-25T21:29:06.011Z,1.35
2023-01-25T21:32:07.528Z,1.40
2023-01-25T21:35:09.431Z,1.30
2023-01-25T21:38:11.026Z,1.40
2023-01-25T21:41:19.754Z,1.40
2023-01-25T21:44:39.837Z,1.50
2023-01-25T21:47:41.324Z,1.63
2023-01-25T21:51:18.227Z,1.50
2023-01-25T21:54:22.645Z,1.60
2023-01-25T21:57:24.121Z,1.63
2023-01-25T22:00:25.571Z,1.60
2023-01-25T22:03:27.025Z,1.73
2023-01-25T22:06:28.806Z,1.50
2023-01-25T22:09:32.829Z,1.80
2023-01-25T22:12:34.323Z,1.60
2023-01-25T22:15:35.782Z,1.65
2023-01-25T22:18:39.641Z,1.70
2023-01-25T22:21:41.098Z,1.83
2023-01-25T22:24:42.538Z,1.63
2023-01-25T22:27:55.429Z,1.77
2023-01-25T22:30:56.978Z,1.63
2023-01-25T22:33:59.432Z,1.80
2023-01-25T22:37:00.875Z,1.70
2023-01-25T22:40:02.335Z,1.80
2023-01-25T22:43:03.788Z,1.80
2023-01-25T22:46:06.601Z,1.67
2023-01-25T22:49:08.658Z,1.63
2023-01-25T22:52:10.122Z,1.60
2023-01-25T22:55:11.562Z,1.80
2023-01-25T22:58:13.023Z,1.67
2023-01-25T23:01:17.388Z,1.70
2023-01-25T23:04:18.867Z,1.80
2023-01-25T23:07:20.424Z,1.83
2023-01-25T23:10:22.832Z,1.90
2023-01-25T23:13:24.334Z,2.03
2023-01-25T23:16:25.777Z,1.65
2023-01-25T23:19:27.302Z,2.00
2023-01-25T23:22:28.820Z,1.90
2023-01-25T23:25:30.872Z,2.33
2023-01-25T23:28:32.419Z,2.20
2023-01-25T23:31:34.093Z,1.90
2023-01-25T23:34:37.002Z,1.95
2023-01-25T23:37:38.540Z,2.08
2023-01-25T23:40:40.017Z,2.13
2023-01-25T23:43:42.153Z,2.58
2023-01-25T23:46:43.680Z,2.20
2023-01-25T23:49:45.167Z,2.40
2023-01-25T23:52:46.605Z,2.40
2023-01-25T23:55:56.521Z,2.50
2023-01-25T23:58:59.081Z,2.20
